Time;durP1;ratioP1;P1;durP2;ratioP2;P2;SDS_P1;SDS_P2;PMS_P1;PMS_P2;Temp;Humidity;BMP_temperature;BMP_pressure;BME280_temperature;BME280_humidity;BME280_pressure;Samples;Min_cycle;Max_cycle;Signal;HPM_P1;HPM_P2
2022/04/15 00:01:28;;;;;;;28.45;19.85;;;;;;;15.94;49.63;101383.47;5046335;28;20512;-74
2022/04/15 00:03:56;;;;;;;32.75;20.25;;;;;;;15.65;50.07;101379.59;5063301;28;20045;-73
2022/04/15 00:06:24;;;;;;;27.13;19.45;;;;;;;15.20;50.85;101386.53;5052122;28;20127;-73
2022/04/15 00:08:51;;;;;;;27.80;19.58;;;;;;;15.67;49.87;101382.13;5055805;28;20475;-74
2022/04/15 00:11:17;;;;;;;27.45;19.95;;;;;;;15.66;49.85;101386.69;5051723;28;20525;-73
2022/04/15 00:13:45;;;;;;;28.58;20.13;;;;;;;15.68;49.96;101381.94;5050859;28;20136;-74
2022/04/15 00:16:12;;;;;;;29.17;20.40;;;;;;;15.75;49.56;101389.38;5057057;28;20471;-73
2022/04/15 00:18:38;;;;;;;28.90;19.80;;;;;;;15.67;49.52;101382.97;5051039;28;20491;-73
2022/04/15 00:21:05;;;;;;;26.75;19.90;;;;;;;15.48;49.59;101383.38;5053597;28;20044;-74
2022/04/15 00:23:31;;;;;;;22.67;18.00;;;;;;;15.35;50.13;101383.09;5054566;28;20128;-74
2022/04/15 00:25:59;;;;;;;25.30;20.23;;;;;;;15.38;50.06;101386.28;5051793;28;20521;-74
2022/04/15 00:28:25;;;;;;;27.08;19.80;;;;;;;15.22;50.41;101381.81;5050312;28;20127;-74
2022/04/15 00:30:52;;;;;;;32.75;19.75;;;;;;;15.34;50.08;101384.13;5050411;28;20071;-75
2022/04/15 00:33:19;;;;;;;30.75;20.70;;;;;;;15.29;50.06;101381.91;5051279;28;20053;-74
2022/04/15 00:35:45;;;;;;;30.63;21.05;;;;;;;15.23;50.22;101385.34;5048999;28;20072;-74
2022/04/15 00:38:12;;;;;;;31.33;19.50;;;;;;;15.18;50.38;101388.56;5050759;28;20069;-74
2022/04/15 00:40:38;;;;;;;26.52;19.67;;;;;;;15.30;49.54;101385.50;5050784;28;20140;-75
2022/04/15 00:43:05;;;;;;;27.13;18.65;;;;;;;15.33;49.40;101375.19;5049509;28;20127;-74
2022/04/15 00:45:32;;;;;;;30.50;19.83;;;;;;;15.16;50.00;101384.38;5056707;28;20083;-73
2022/04/15 00:48:00;;;;;;;26.25;18.55;;;;;;;15.27;49.82;101377.72;5051442;28;20447;-73
2022/04/15 00:50:32;;;;;;;27.55;19.08;;;;;;;15.23;49.63;101380.78;5050038;28;20113;-73
2022/04/15 00:53:01;;;;;;;30.20;18.33;;;;;;;15.15;49.79;101382.66;5050396;28;20139;-74
2022/04/15 00:55:28;;;;;;;24.90;17.60;;;;;;;15.12;49.43;101372.19;5049741;28;20114;-74
2022/04/15 00:57:57;;;;;;;28.40;16.52;;;;;;;15.21;49.33;101385.50;5050579;28;20128;-74
2022/04/15 01:00:26;;;;;;;28.13;18.65;;;;;;;15.42;48.91;101378.66;5050302;28;20127;-74
2022/04/15 01:02:53;;;;;;;28.05;17.40;;;;;;;15.16;49.10;101377.09;5050784;28;20456;-73
2022/04/15 01:09:06;;;;;;;22.83;15.43;;;;;;;15.19;48.29;101390.25;5050329;28;20067;-74
2022/04/15 01:11:34;;;;;;;24.73;14.55;;;;;;;15.00;48.78;101387.94;5045875;28;20052;-75
2022/04/15 01:14:02;;;;;;;19.75;12.57;;;;;;;14.76;48.90;101389.69;5059771;28;20497;-73
2022/04/15 01:16:30;;;;;;;24.73;12.80;;;;;;;14.62;49.02;101384.94;5049897;28;20083;-73
2022/04/15 01:18:56;;;;;;;25.17;11.75;;;;;;;14.73;48.73;101390.03;5049317;28;20057;-73
2022/04/15 01:21:31;;;;;;;17.15;10.38;;;;;;;14.87;47.59;101385.78;5051053;28;20478;-73
2022/04/15 01:23:58;;;;;;;17.83;11.05;;;;;;;14.01;49.11;101394.38;5049743;28;20080;-74
2022/04/15 01:26:24;;;;;;;22.90;10.30;;;;;;;14.38;47.91;101398.47;5043016;28;20556;-75
2022/04/15 01:28:50;;;;;;;15.88;10.32;;;;;;;14.28;48.43;101396.78;5050804;28;20044;-73
2022/04/15 01:31:17;;;;;;;19.00;10.30;;;;;;;14.53;47.77;101404.88;5049051;28;20140;-74
2022/04/15 01:33:44;;;;;;;18.05;10.77;;;;;;;14.20;48.44;101402.19;5050768;28;20075;-73
2022/04/15 01:36:11;;;;;;;19.70;10.50;;;;;;;13.85;48.95;101407.88;5050363;28;20438;-73
2022/04/15 01:38:38;;;;;;;16.13;10.25;;;;;;;13.76;48.92;101413.22;5049933;28;20484;-73
2022/04/15 01:41:05;;;;;;;15.93;9.30;;;;;;;13.50;48.73;101412.44;5047996;28;20478;-73
2022/04/15 01:43:31;;;;;;;16.77;8.63;;;;;;;13.87;47.51;101420.16;5050799;28;20048;-74
2022/04/15 01:45:57;;;;;;;16.35;9.38;;;;;;;13.39;48.16;101420.78;5052597;28;20045;-74
2022/04/15 01:48:24;;;;;;;18.75;10.45;;;;;;;13.49;48.39;101410.72;5054976;28;20075;-75
2022/04/15 01:50:50;;;;;;;23.80;9.50;;;;;;;13.51;48.06;101419.50;5053491;28;20120;-74
2022/04/15 01:53:17;;;;;;;16.17;9.00;;;;;;;13.66;47.44;101417.03;5053465;28;20381;-74
2022/04/15 01:55:43;;;;;;;17.17;9.60;;;;;;;12.87;49.31;101422.56;5054168;28;20504;-74
2022/04/15 01:58:10;;;;;;;20.60;10.10;;;;;;;13.18;47.69;101413.97;5053778;28;20068;-75
2022/04/15 02:00:36;;;;;;;15.52;9.77;;;;;;;13.43;47.09;101430.28;5053961;28;20132;-75
2022/04/15 02:03:03;;;;;;;19.48;9.80;;;;;;;13.53;46.57;101425.59;5054239;28;20136;-75
2022/04/15 02:05:30;;;;;;;22.40;10.95;;;;;;;13.47;46.83;101424.38;5053817;28;20202;-75
2022/04/15 02:07:56;;;;;;;21.17;10.10;;;;;;;13.27;46.67;101423.78;5053943;28;20133;-75
2022/04/15 02:10:23;;;;;;;17.20;10.05;;;;;;;13.53;46.23;101428.28;5053844;28;20127;-75
2022/04/15 02:12:50;;;;;;;19.00;10.45;;;;;;;13.61;46.25;101427.47;5052323;28;20060;-75
2022/04/15 02:15:16;;;;;;;27.23;11.38;;;;;;;13.46;46.80;101432.66;5053519;28;20052;-75
2022/04/15 02:17:42;;;;;;;18.98;10.55;;;;;;;13.57;46.06;101429.66;5048228;28;20049;-75
2022/04/15 02:20:11;;;;;;;17.50;10.45;;;;;;;13.59;45.95;101430.31;5054066;28;20128;-75
2022/04/15 02:22:38;;;;;;;19.80;10.13;;;;;;;13.43;46.50;101432.97;5054134;28;20049;-75
2022/04/15 02:25:05;;;;;;;16.30;9.88;;;;;;;13.65;45.25;101437.75;5052945;28;20124;-75
2022/04/15 02:27:31;;;;;;;20.35;10.00;;;;;;;13.54;45.87;101435.38;5054118;28;20060;-75
2022/04/15 02:29:58;;;;;;;19.20;9.80;;;;;;;13.20;46.27;101435.38;5053417;28;20441;-75
2022/04/15 02:32:24;;;;;;;17.88;9.02;;;;;;;13.23;46.12;101430.50;5053389;28;20049;-75
2022/04/15 02:34:51;;;;;;;17.85;9.55;;;;;;;12.99;46.67;101433.06;5052942;28;20120;-75
2022/04/15 02:37:17;;;;;;;17.20;9.10;;;;;;;13.40;45.50;101435.97;5053229;28;20133;-75
2022/04/15 02:39:44;;;;;;;14.02;9.27;;;;;;;12.91;46.50;101433.00;5048507;28;20068;-75
2022/04/15 02:42:10;;;;;;;16.40;9.02;;;;;;;13.37;45.28;101430.91;5052529;28;20405;-75
2022/04/15 02:44:37;;;;;;;17.20;10.40;;;;;;;12.93;46.26;101433.69;5052151;28;20467;-75
2022/04/15 02:47:04;;;;;;;21.83;9.77;;;;;;;12.71;46.75;101438.56;5052559;28;20045;-75
2022/04/15 02:49:31;;;;;;;16.80;9.32;;;;;;;12.97;46.16;101444.00;5053287;28;20128;-75
2022/04/15 02:51:57;;;;;;;18.48;9.63;;;;;;;13.09;45.70;101442.72;5052640;28;20044;-75
2022/04/15 02:54:24;;;;;;;17.25;9.52;;;;;;;13.06;45.85;101447.56;5053095;28;20428;-75
2022/04/15 02:56:51;;;;;;;15.63;9.55;;;;;;;12.79;46.68;101441.31;5051254;28;20505;-75
2022/04/15 02:59:17;;;;;;;16.23;9.80;;;;;;;12.75;46.40;101449.88;5045104;28;20062;-75
2022/04/15 03:01:45;;;;;;;22.00;9.88;;;;;;;12.99;45.94;101450.06;5058252;28;20541;-75
2022/04/15 03:04:12;;;;;;;14.95;9.93;;;;;;;12.89;46.09;101446.63;5051963;28;20095;-75
2022/04/15 03:06:38;;;;;;;16.83;9.55;;;;;;;12.97;46.02;101451.22;5052812;28;20533;-75
2022/04/15 03:09:05;;;;;;;13.90;9.98;;;;;;;12.75;46.46;101447.19;5051648;28;20047;-75
2022/04/15 03:11:32;;;;;;;20.20;10.40;;;;;;;12.79;46.25;101456.66;5053130;28;20058;-75
2022/04/15 03:13:58;;;;;;;18.55;9.95;;;;;;;12.98;45.95;101452.91;5052674;28;20098;-75
2022/04/15 03:16:25;;;;;;;18.38;10.55;;;;;;;12.91;45.78;101444.63;5039945;28;20044;-75
2022/04/15 03:18:51;;;;;;;23.10;10.90;;;;;;;12.71;46.30;101449.31;5043897;28;20083;-75
2022/04/15 03:21:18;;;;;;;19.80;9.75;;;;;;;13.00;46.07;101453.59;5052923;28;20144;-75
2022/04/15 03:23:44;;;;;;;24.77;10.52;;;;;;;13.17;45.35;101446.47;5052593;28;20128;-75
2022/04/15 03:26:11;;;;;;;18.98;10.73;;;;;;;12.82;46.06;101446.41;5052596;28;20044;-75
2022/04/15 03:28:37;;;;;;;17.90;10.55;;;;;;;12.79;46.42;101451.25;5051992;28;20512;-75
2022/04/15 03:31:05;;;;;;;16.77;9.85;;;;;;;12.99;45.61;101451.91;5051538;28;20140;-74
2022/04/15 03:33:37;;;;;;;15.32;9.13;;;;;;;12.96;45.68;101449.53;5051845;28;20065;-73
2022/04/15 03:36:04;;;;;;;22.75;10.23;;;;;;;12.57;46.82;101458.81;5051637;28;20041;-73
2022/04/15 03:38:31;;;;;;;14.10;10.23;;;;;;;12.58;46.67;101454.25;5050419;28;20125;-73
2022/04/15 03:40:58;;;;;;;21.55;10.93;;;;;;;12.37;47.28;101458.09;5052352;28;20488;-73
2022/04/15 03:43:24;;;;;;;19.25;11.45;;;;;;;12.82;46.21;101454.47;5051354;28;20428;-74
2022/04/15 03:45:51;;;;;;;17.58;10.82;;;;;;;12.82;46.30;101450.94;5056389;28;20509;-73
2022/04/15 03:48:17;;;;;;;15.50;10.57;;;;;;;12.81;46.20;101450.09;5052398;28;20045;-73
2022/04/15 03:50:44;;;;;;;16.88;10.63;;;;;;;12.55;46.96;101446.50;5056029;28;20067;-74
2022/04/15 03:53:10;;;;;;;17.58;10.40;;;;;;;12.67;46.77;101453.34;5053622;28;20124;-75
2022/04/15 03:55:36;;;;;;;14.57;9.70;;;;;;;13.02;45.66;101446.22;5050780;28;20137;-74
2022/04/15 03:58:03;;;;;;;20.88;10.52;;;;;;;12.71;46.35;101446.63;5051307;28;20064;-75
2022/04/15 04:00:29;;;;;;;13.75;10.50;;;;;;;12.84;46.05;101454.34;5052096;28;20131;-73
2022/04/15 04:03:00;;;;;;;19.67;11.00;;;;;;;13.05;45.63;101467.44;5051643;28;20374;-75
2022/04/15 04:05:27;;;;;;;18.65;10.52;;;;;;;12.65;46.38;101472.31;5051290;28;20482;-75
2022/04/15 04:07:54;;;;;;;18.35;11.23;;;;;;;12.63;46.73;101466.25;5050730;28;20136;-75
2022/04/15 04:10:20;;;;;;;17.85;11.20;;;;;;;12.74;46.46;101475.97;5051963;28;20460;-74
2022/04/15 04:12:48;;;;;;;20.50;10.88;;;;;;;12.56;46.95;101473.28;5050511;28;20048;-74
2022/04/15 04:15:15;;;;;;;15.63;10.38;;;;;;;12.87;46.26;101472.88;5052206;28;20041;-74
2022/04/15 04:17:41;;;;;;;17.70;11.13;;;;;;;12.92;45.93;101477.78;5050416;28;20049;-74
2022/04/15 04:20:09;;;;;;;17.20;10.43;;;;;;;12.96;46.01;101479.16;5051428;28;20519;-74
2022/04/15 04:22:37;;;;;;;20.15;11.18;;;;;;;12.83;46.33;101475.03;5050851;28;20493;-74
2022/04/15 04:25:08;;;;;;;17.45;10.13;;;;;;;12.95;46.06;101483.69;5050321;28;20064;-74
2022/04/15 04:27:36;;;;;;;109.50;23.23;;;;;;;12.55;46.96;101478.78;5046651;28;20474;-74
2022/04/15 04:30:04;;;;;;;20.45;10.98;;;;;;;12.96;46.08;101476.47;5051178;28;20041;-74
2022/04/15 04:32:31;;;;;;;14.15;10.45;;;;;;;12.90;46.14;101480.63;5051261;28;20128;-74
2022/04/15 04:34:57;;;;;;;17.30;9.75;;;;;;;12.87;46.16;101481.81;5051207;28;20072;-74
2022/04/15 04:37:24;;;;;;;18.73;9.80;;;;;;;12.87;46.18;101486.34;5051143;28;20041;-74
2022/04/15 04:39:50;;;;;;;16.55;11.40;;;;;;;12.77;46.52;101491.81;5050992;28;20116;-75
2022/04/15 04:42:19;;;;;;;15.65;9.77;;;;;;;12.68;46.71;101498.09;5051498;28;20108;-74
2022/04/15 04:44:45;;;;;;;19.20;11.57;;;;;;;12.56;46.94;101504.72;5049619;28;20400;-74
2022/04/15 04:47:12;;;;;;;17.15;9.82;;;;;;;12.57;47.07;101501.03;5050777;28;20127;-74
2022/04/15 04:49:39;;;;;;;21.02;10.80;;;;;;;12.62;46.86;101499.53;5049835;28;20068;-74
2022/04/15 04:52:06;;;;;;;18.90;9.88;;;;;;;12.83;46.26;101498.41;5050738;28;20044;-75
2022/04/15 04:54:33;;;;;;;17.90;11.05;;;;;;;12.41;47.35;101507.94;5050898;28;20124;-74
2022/04/15 04:57:00;;;;;;;15.20;9.55;;;;;;;12.73;46.59;101506.56;5050138;28;20072;-74
2022/04/15 04:59:28;;;;;;;18.27;10.27;;;;;;;12.92;45.93;101504.72;5049621;28;20121;-74
2022/04/15 05:01:55;;;;;;;15.90;9.70;;;;;;;12.59;46.70;101510.66;5050542;28;20073;-75
2022/04/15 05:04:21;;;;;;;15.93;9.70;;;;;;;12.58;46.83;101518.84;5051143;28;20430;-74
2022/04/15 05:06:49;;;;;;;12.18;8.43;;;;;;;12.60;46.77;101516.88;5049173;28;20047;-74
2022/04/15 05:09:18;;;;;;;17.38;10.35;;;;;;;13.04;45.76;101519.59;5050417;28;20064;-74
2022/04/15 05:11:44;;;;;;;17.98;9.30;;;;;;;12.56;46.53;101516.34;5050114;28;20119;-75
2022/04/15 05:14:11;;;;;;;17.67;9.88;;;;;;;12.81;46.06;101521.97;5050634;28;20463;-75
2022/04/15 05:16:37;;;;;;;16.20;8.77;;;;;;;13.00;45.76;101516.38;5049222;28;20048;-74
2022/04/15 05:19:04;;;;;;;13.02;8.82;;;;;;;12.49;46.72;101514.41;5050922;28;20064;-75
2022/04/15 05:21:30;;;;;;;16.35;9.48;;;;;;;12.97;45.71;101521.25;5050884;28;20132;-74
2022/04/15 05:23:56;;;;;;;13.25;9.60;;;;;;;12.48;46.92;101520.78;5050859;28;20124;-74
2022/04/15 05:26:23;;;;;;;12.60;8.70;;;;;;;12.37;47.11;101519.16;5050623;28;20412;-75
2022/04/15 05:28:49;;;;;;;13.93;9.02;;;;;;;12.46;46.74;101525.47;5048458;28;20489;-74
2022/04/15 05:31:16;;;;;;;14.75;10.07;;;;;;;12.67;46.26;101527.88;5049435;28;20111;-74
2022/04/15 05:33:43;;;;;;;16.80;9.40;;;;;;;12.62;46.48;101531.00;5049927;28;20400;-74
2022/04/15 05:36:09;;;;;;;21.83;12.32;;;;;;;13.00;45.55;101532.53;5050656;28;20136;-74
2022/04/15 05:38:36;;;;;;;17.63;10.02;;;;;;;13.16;45.35;101534.53;5050848;28;20041;-74
2022/04/15 05:41:02;;;;;;;18.40;11.48;;;;;;;13.23;45.44;101529.34;5054519;28;20544;-75
2022/04/15 05:43:29;;;;;;;20.42;10.55;;;;;;;13.08;45.71;101532.63;5053122;28;20068;-75
2022/04/15 05:45:55;;;;;;;15.75;9.10;;;;;;;12.68;46.55;101540.31;5051982;28;20056;-74
2022/04/15 05:48:22;;;;;;;15.43;9.45;;;;;;;12.58;46.54;101535.00;5044842;28;20052;-74
2022/04/15 05:50:48;;;;;;;13.40;9.30;;;;;;;12.98;45.62;101544.50;5052315;28;20521;-75
2022/04/15 05:53:15;;;;;;;13.15;9.45;;;;;;;12.74;46.36;101539.72;5052748;28;20128;-75
2022/04/15 05:55:41;;;;;;;15.05;10.25;;;;;;;12.85;46.07;101542.19;5052077;28;20045;-75
2022/04/15 05:58:10;;;;;;;14.38;10.27;;;;;;;12.72;46.35;101550.63;5052211;28;20087;-76
2022/04/15 06:00:37;;;;;;;18.92;9.27;;;;;;;12.92;45.96;101563.97;5052017;28;20070;-74
2022/04/15 06:03:04;;;;;;;14.45;9.10;;;;;;;12.92;45.99;101550.50;5050902;28;20072;-75
2022/04/15 06:05:31;;;;;;;18.08;8.98;;;;;;;12.93;46.04;101557.56;5051166;28;20053;-74
2022/04/15 06:07:57;;;;;;;18.10;9.75;;;;;;;12.74;45.90;101561.25;5050049;28;20055;-74
2022/04/15 06:10:24;;;;;;;14.95;9.05;;;;;;;13.24;45.00;101564.22;5040227;28;20136;-74
2022/04/15 06:15:56;;;;;;;23.48;10.23;;;;;;;13.54;44.79;101560.22;5029055;28;20112;-74
2022/04/15 06:18:34;;;;;;;15.55;8.98;;;;;;;13.68;44.63;101568.72;5029856;28;20045;-74
2022/04/15 06:21:01;;;;;;;16.98;10.00;;;;;;;12.82;46.33;101567.56;5029685;28;20122;-74
2022/04/15 06:23:28;;;;;;;17.83;9.60;;;;;;;13.01;45.87;101566.56;5030092;28;20076;-74
2022/04/15 06:25:54;;;;;;;16.13;9.68;;;;;;;13.24;45.06;101558.81;5029859;28;20076;-74
2022/04/15 06:28:21;;;;;;;13.68;9.55;;;;;;;12.86;46.11;101570.81;5033703;28;20069;-74
2022/04/15 06:30:48;;;;;;;14.50;9.13;;;;;;;12.99;45.78;101570.41;5040471;28;20124;-74
2022/04/15 06:33:16;;;;;;;14.55;9.10;;;;;;;13.09;45.56;101573.88;5039279;28;20461;-74
2022/04/15 06:35:43;;;;;;;15.27;9.40;;;;;;;13.41;45.14;101575.13;5027274;28;20569;-73
2022/04/15 06:38:09;;;;;;;15.23;9.07;;;;;;;13.68;44.34;101576.81;5050422;28;20500;-74
2022/04/15 06:40:38;;;;;;;18.30;10.05;;;;;;;13.00;45.98;101572.09;5053407;28;20462;-73
2022/04/15 06:43:05;;;;;;;15.07;8.50;;;;;;;13.40;45.03;101578.81;5053279;28;20045;-73
2022/04/15 06:45:32;;;;;;;16.48;8.73;;;;;;;13.22;45.46;101577.00;5044789;28;20080;-74
2022/04/15 06:47:59;;;;;;;15.88;8.73;;;;;;;13.38;44.70;101572.72;5032535;28;20049;-72
2022/04/15 06:50:26;;;;;;;13.82;8.75;;;;;;;13.12;45.08;101581.66;5032536;28;20061;-74
2022/04/15 06:52:58;;;;;;;14.32;8.90;;;;;;;13.00;45.48;101577.50;5028925;28;20133;-73
2022/04/15 06:55:25;;;;;;;19.60;8.60;;;;;;;12.94;45.90;101583.50;5033602;28;20466;-74
2022/04/15 06:57:51;;;;;;;13.10;8.30;;;;;;;13.00;45.69;101585.56;5033734;28;20076;-73
2022/04/15 07:00:18;;;;;;;15.50;9.20;;;;;;;13.40;45.07;101584.22;5033069;28;20049;-73
2022/04/15 07:02:44;;;;;;;17.15;9.25;;;;;;;13.09;45.60;101587.34;5042051;28;20482;-74
2022/04/15 07:05:12;;;;;;;12.55;8.30;;;;;;;12.76;46.37;101587.03;5051793;28;20493;-75
2022/04/15 07:07:39;;;;;;;17.05;9.10;;;;;;;12.47;46.65;101586.38;5040784;28;20077;-74
2022/04/15 07:10:07;;;;;;;16.65;8.13;;;;;;;13.00;45.87;101582.88;5033450;28;20477;-74
2022/04/15 07:12:34;;;;;;;12.40;8.27;;;;;;;13.18;45.20;101588.25;5030976;28;20100;-74
2022/04/15 07:15:00;;;;;;;15.18;8.70;;;;;;;13.25;44.98;101582.09;5041446;28;20083;-74
2022/04/15 07:17:27;;;;;;;13.13;8.75;;;;;;;13.13;45.12;101587.88;5046209;28;20132;-74
2022/04/15 07:19:53;;;;;;;12.65;7.93;;;;;;;13.05;45.30;101592.19;5031840;28;20080;-74
2022/04/15 07:22:21;;;;;;;16.42;8.18;;;;;;;13.24;45.05;101593.00;5042725;28;20102;-76
2022/04/15 07:24:48;;;;;;;15.50;7.50;;;;;;;12.76;45.79;101589.72;5051504;28;20552;-75
2022/04/15 07:27:15;;;;;;;12.05;7.53;;;;;;;13.38;44.41;101589.75;5052073;28;20552;-76
2022/04/15 07:29:44;;;;;;;11.52;7.65;;;;;;;13.05;44.90;101586.81;5053451;28;20377;-76
2022/04/15 07:32:11;;;;;;;12.60;7.25;;;;;;;13.24;44.62;101606.50;5053204;28;20458;-76
2022/04/15 07:34:37;;;;;;;17.38;8.05;;;;;;;13.28;44.48;101603.34;5052045;28;20470;-76
2022/04/15 07:37:05;;;;;;;13.35;7.45;;;;;;;13.23;44.95;101610.19;5052215;28;20140;-74
2022/04/15 07:39:32;;;;;;;13.93;7.25;;;;;;;13.02;45.68;101607.81;5051597;28;20481;-73
2022/04/15 07:41:58;;;;;;;12.15;7.85;;;;;;;13.09;44.95;101616.97;5052120;28;20075;-74
2022/04/15 07:44:24;;;;;;;17.30;8.30;;;;;;;12.65;46.04;101616.84;5051905;28;20135;-73
2022/04/15 07:46:51;;;;;;;14.60;7.80;;;;;;;13.30;44.49;101609.41;5051416;28;20069;-73
2022/04/15 07:49:17;;;;;;;14.10;8.35;;;;;;;13.29;44.87;101615.81;5051690;28;20128;-73
2022/04/15 07:51:44;;;;;;;12.95;8.07;;;;;;;12.92;45.43;101615.97;5052200;28;20123;-73
2022/04/15 07:54:10;;;;;;;19.52;8.05;;;;;;;13.12;45.02;101622.06;5050846;28;20134;-74
2022/04/15 07:56:37;;;;;;;15.93;9.32;;;;;;;13.43;44.35;101617.09;5039031;28;20382;-74
2022/04/15 07:59:04;;;;;;;11.23;7.78;;;;;;;13.61;43.84;101618.91;5030577;28;20128;-74
2022/04/15 08:01:31;;;;;;;16.73;9.13;;;;;;;13.30;44.33;101622.88;5032160;28;20143;-73
2022/04/15 08:03:59;;;;;;;18.30;9.88;;;;;;;13.27;44.50;101628.56;5031349;28;20092;-74
2022/04/15 08:06:30;;;;;;;14.40;8.43;;;;;;;13.31;44.66;101626.41;5032188;28;20509;-73
2022/04/15 08:08:58;;;;;;;15.40;9.10;;;;;;;13.27;44.61;101625.03;5030655;28;20095;-72
2022/04/15 08:11:26;;;;;;;18.48;8.43;;;;;;;13.73;43.57;101629.25;5035171;28;20492;-74
2022/04/15 08:13:54;;;;;;;15.77;8.90;;;;;;;13.79;43.52;101633.19;5050146;28;20401;-73
2022/04/15 08:16:21;;;;;;;15.38;8.77;;;;;;;13.43;44.52;101632.41;5051487;28;20132;-74
2022/04/15 08:18:49;;;;;;;21.10;9.45;;;;;;;13.64;44.39;101627.50;5051184;28;20052;-73
2022/04/15 08:21:16;;;;;;;15.23;8.65;;;;;;;13.53;44.81;101627.78;5049921;28;20140;-73
2022/04/15 08:23:43;;;;;;;15.65;9.15;;;;;;;13.51;44.89;101632.47;5040409;28;20492;-75
2022/04/15 08:26:11;;;;;;;14.77;8.88;;;;;;;13.45;44.67;101633.94;5042406;28;20067;-75
2022/04/15 08:28:38;;;;;;;13.65;8.82;;;;;;;13.30;45.48;101638.22;5050356;28;20118;-75
2022/04/15 08:31:04;;;;;;;15.90;8.88;;;;;;;13.05;45.50;101632.59;5044008;28;20052;-75
2022/04/15 08:33:31;;;;;;;16.17;8.43;;;;;;;13.08;45.23;101637.69;5045797;28;20103;-75
2022/04/15 08:35:57;;;;;;;14.52;8.63;;;;;;;13.40;44.85;101641.66;5033210;28;20120;-74
2022/04/15 08:38:24;;;;;;;17.45;9.00;;;;;;;13.75;43.84;101642.59;5033008;28;20497;-73
2022/04/15 08:40:58;;;;;;;18.23;9.32;;;;;;;13.11;45.28;101644.59;5050404;28;20140;-74
2022/04/15 08:43:25;;;;;;;19.90;8.63;;;;;;;12.76;46.01;101648.97;5049720;28;20477;-73
2022/04/15 08:45:53;;;;;;;15.60;8.18;;;;;;;13.26;44.88;101653.84;5051097;28;20049;-73
2022/04/15 08:48:21;;;;;;;15.85;9.13;;;;;;;13.49;44.46;101658.72;5051129;28;20416;-73
2022/04/15 08:50:47;;;;;;;16.20;8.98;;;;;;;13.20;45.25;101650.91;5048840;28;20124;-73
2022/04/15 08:53:14;;;;;;;14.50;8.57;;;;;;;13.75;43.91;101656.91;5050949;28;20140;-73
2022/04/15 08:55:40;;;;;;;15.98;9.15;;;;;;;13.46;44.85;101661.75;5046625;28;20076;-73
2022/04/15 08:58:07;;;;;;;21.70;12.02;;;;;;;12.80;46.43;101663.84;5040902;28;20083;-73
2022/04/15 09:00:34;;;;;;;22.98;13.23;;;;;;;13.14;45.96;101665.84;5035047;28;20512;-73
2022/04/15 09:03:03;;;;;;;21.50;14.20;;;;;;;13.65;44.50;101669.66;5030106;28;20053;-73
2022/04/15 09:05:29;;;;;;;18.60;10.98;;;;;;;13.82;44.08;101663.38;5050376;28;20049;-73
2022/04/15 09:08:04;;;;;;;18.02;11.15;;;;;;;13.02;45.68;101665.22;5049289;28;20454;-73
2022/04/15 09:10:33;;;;;;;19.83;9.75;;;;;;;13.56;44.33;101675.97;5050025;28;20461;-73
2022/04/15 09:13:01;;;;;;;16.27;9.63;;;;;;;13.92;43.64;101675.94;5049612;28;20037;-73
2022/04/15 09:15:33;;;;;;;20.27;9.75;;;;;;;13.66;44.25;101676.72;5051607;28;20409;-73
2022/04/15 09:18:00;;;;;;;18.05;9.82;;;;;;;12.98;45.89;101673.78;5050169;28;20049;-74
2022/04/15 09:20:32;;;;;;;18.45;10.45;;;;;;;13.19;45.40;101690.50;5050690;28;20075;-74
2022/04/15 09:23:08;;;;;;;16.02;9.13;;;;;;;13.51;44.82;101689.09;5050552;28;20076;-74
2022/04/15 09:25:36;;;;;;;16.92;10.13;;;;;;;13.50;44.90;101692.78;5047550;28;20045;-73
2022/04/15 09:28:03;;;;;;;18.80;10.13;;;;;;;13.90;44.34;101689.56;5040886;28;20464;-74
2022/04/15 09:30:36;;;;;;;17.83;9.85;;;;;;;12.67;47.34;101692.94;5035758;28;20049;-73
2022/04/15 09:33:03;;;;;;;18.30;10.43;;;;;;;12.88;47.25;101693.53;5029616;28;20080;-75
2022/04/15 09:35:30;;;;;;;18.95;11.05;;;;;;;12.94;47.38;101700.19;5049950;28;20224;-73
2022/04/15 09:38:03;;;;;;;22.10;12.25;;;;;;;13.18;47.02;101696.88;5050526;28;20045;-74
2022/04/15 09:40:35;;;;;;;18.25;10.20;;;;;;;13.23;47.07;101694.56;5050579;28;20106;-73
2022/04/15 09:43:03;;;;;;;;;;;;;;;13.27;47.25;101698.66;5050813;28;20040;-73
2022/04/15 09:45:34;;;;;;;19.38;10.25;;;;;;;13.69;45.99;101707.94;5050493;28;19967;-74
2022/04/15 09:48:04;;;;;;;17.45;9.82;;;;;;;13.34;46.86;101705.09;5050312;28;20503;-74
2022/04/15 09:50:34;;;;;;;16.27;10.02;;;;;;;13.30;47.17;101709.13;5049499;28;20120;-74
2022/04/15 09:53:12;;;;;;;17.88;10.52;;;;;;;12.82;48.65;101701.38;5049962;28;20509;-74
2022/04/15 09:55:41;;;;;;;18.70;10.68;;;;;;;12.71;48.73;101699.72;5043095;28;20063;-74
2022/04/15 09:58:15;;;;;;;16.33;10.15;;;;;;;13.29;47.38;101707.44;5049851;28;20052;-74
2022/04/15 10:00:45;;;;;;;15.73;10.43;;;;;;;12.60;49.12;101705.31;5049263;28;20529;-74
2022/04/15 10:03:18;;;;;;;18.95;11.52;;;;;;;13.02;48.60;101708.34;5041898;28;20041;-74
2022/04/15 10:05:45;;;;;;;21.45;11.07;;;;;;;13.42;47.47;101714.25;5046314;28;20060;-74
2022/04/15 10:08:12;;;;;;;18.90;10.65;;;;;;;13.33;47.63;101716.91;5053861;28;20045;-75
2022/04/15 10:10:40;;;;;;;19.27;11.40;;;;;;;13.24;47.81;101717.81;5053366;28;20049;-75
2022/04/15 10:13:07;;;;;;;15.30;10.15;;;;;;;13.75;46.93;101724.34;5048411;28;20051;-75
2022/04/15 10:15:37;;;;;;;16.92;10.27;;;;;;;13.55;47.36;101712.03;5050960;28;20056;-75
2022/04/15 10:18:04;;;;;;;23.67;10.43;;;;;;;12.91;48.77;101718.50;5050695;28;20579;-76
2022/04/15 10:20:32;;;;;;;18.85;10.40;;;;;;;13.17;48.01;101714.03;5033708;28;20049;-74
2022/04/15 10:23:04;;;;;;;14.82;10.27;;;;;;;13.34;47.44;101713.19;5033238;28;20068;-72
2022/04/15 10:25:33;;;;;;;17.15;9.18;;;;;;;13.10;48.07;101712.94;5035762;28;20055;-72
2022/04/15 10:28:10;;;;;;;13.50;9.15;;;;;;;13.50;47.09;101709.81;5033544;28;20132;-72
2022/04/15 10:30:38;;;;;;;13.80;9.35;;;;;;;13.51;47.28;101710.66;5034541;28;20072;-72
2022/04/15 10:33:05;;;;;;;11.90;8.27;;;;;;;13.10;48.19;101718.34;5025360;28;20041;-72
2022/04/15 10:35:33;;;;;;;14.65;8.98;;;;;;;13.44;47.24;101721.19;5033548;28;20096;-72
2022/04/15 10:38:11;;;;;;;13.85;8.77;;;;;;;13.20;47.90;101719.13;5033726;28;20489;-72
2022/04/15 10:40:42;;;;;;;12.15;7.78;;;;;;;13.21;48.14;101715.41;5032781;28;20080;-72
2022/04/15 10:43:22;;;;;;;;;;;;;;;12.97;48.82;101717.84;5033224;28;20037;-72
2022/04/15 10:45:54;;;;;;;15.02;8.48;;;;;;;13.46;47.92;101719.22;5033877;28;20004;-72
2022/04/15 10:48:29;;;;;;;14.70;8.98;;;;;;;13.58;47.58;101719.81;5032591;28;20052;-72
2022/04/15 10:50:56;;;;;;;12.77;8.52;;;;;;;13.46;47.77;101724.59;5032991;28;20041;-72
2022/04/15 10:53:23;;;;;;;15.82;8.15;;;;;;;13.74;47.18;101719.94;5032416;28;20157;-72
2022/04/15 10:55:52;;;;;;;11.38;8.18;;;;;;;13.59;47.88;101725.06;5038194;28;20098;-69
2022/04/15 10:58:21;;;;;;;17.92;8.77;;;;;;;13.89;47.31;101717.56;5033951;28;20417;-69
2022/04/15 11:01:16;;;;;;;12.95;7.82;;;;;;;13.70;47.89;101720.41;5033556;28;20057;-70
2022/04/15 11:03:50;;;;;;;12.38;7.68;;;;;;;13.67;47.85;101720.75;5032953;28;20449;-69
2022/04/15 11:06:26;;;;;;;12.45;7.68;;;;;;;13.71;47.97;101725.66;5032663;28;20045;-69
2022/04/15 11:09:13;;;;;;;12.13;7.65;;;;;;;13.90;47.68;101730.03;5031923;28;20071;-69
2022/04/15 11:11:42;;;;;;;11.90;7.28;;;;;;;13.99;47.42;101730.94;5031984;28;20077;-69
2022/04/15 11:14:13;;;;;;;12.13;7.75;;;;;;;13.80;47.42;101727.44;5032118;28;20125;-69
2022/04/15 11:16:48;;;;;;;10.85;7.13;;;;;;;14.04;47.17;101729.44;5032434;28;20404;-69
2022/04/15 11:19:22;;;;;;;10.85;6.13;;;;;;;13.80;47.74;101732.84;5031981;28;20132;-69
2022/04/15 11:21:53;;;;;;;8.93;5.95;;;;;;;13.83;47.51;101734.38;5025542;28;20050;-69
2022/04/15 11:24:22;;;;;;;5.82;4.80;;;;;;;14.04;47.06;101734.00;5032872;28;20041;-69